.
WxDataArchive / Data Records for 2008-03-25
2008-03-24 March 2008 2008-03-26

Data Records for Tuesday, 25 March 2008

Time	Temp	Chill	HIndex	Humid	Dewpt	 Wind 	HiWind	WindDir	Rain 	Barom 
-----	----	-----	------	-----	-----	------	------	-------	-----	----- 
00:00	30.9	30.9	30.9	67	21.3	0	1	135	0.00	30.202 
00:05	30.9	30.9	30.9	67	21.3	0	1	135	0.00	30.200 
00:10	30.9	30.9	30.9	67	21.3	0	1	135	0.00	30.200 
00:15	30.9	30.9	30.9	68	21.6	0	1	135	0.00	30.200 
00:20	30.6	30.6	30.6	68	21.3	0	1	135	0.00	30.202 
00:25	30.4	30.4	30.4	69	21.5	0	0	---	0.00	30.204 
00:30	30.1	30.1	30.1	69	21.2	0	0	---	0.00	30.203 
00:35	30.0	30.0	30.0	69	21.1	0	0	---	0.00	30.204 
00:40	29.8	29.8	29.8	70	21.2	0	0	---	0.00	30.204 
00:45	29.8	29.8	29.8	70	21.2	0	1	135	0.00	30.206 
00:50	29.8	29.8	29.8	70	21.2	0	1	135	0.00	30.207 
00:55	30.0	30.0	30.0	70	21.4	0	1	135	0.00	30.205 
01:00	30.0	30.0	30.0	70	21.4	0	1	135	0.00	30.201 
01:05	30.1	30.1	30.1	69	21.2	0	2	135	0.00	30.195 
01:10	30.3	30.3	30.3	69	21.4	0	1	135	0.00	30.195 
01:15	30.3	30.3	30.3	69	21.4	0	1	135	0.00	30.195 
01:20	30.3	30.3	30.3	70	21.7	0	1	135	0.00	30.195 
01:25	30.4	30.4	30.4	69	21.5	0	2	135	0.00	30.195 
01:30	30.6	30.6	30.6	69	21.7	0	2	68	0.00	30.195 
01:35	30.7	30.7	30.7	69	21.8	0	2	45	0.00	30.195 
01:40	30.9	30.9	30.9	69	21.9	0	2	338	0.00	30.195 
01:45	31.0	31.0	31.0	68	21.7	0	1	338	0.00	30.194 
01:50	31.0	31.0	31.0	69	22.0	0	1	338	0.00	30.192 
01:55	31.0	31.0	31.0	68	21.7	0	2	338	0.00	30.189 
02:00	31.3	31.3	31.3	68	22.0	1	6	270	0.00	30.186 
02:05	31.5	31.5	31.5	68	22.2	0	2	22	0.00	30.185 
02:10	31.5	31.5	31.5	68	22.2	0	2	22	0.00	30.182 
02:15	31.6	31.6	31.6	67	21.9	1	2	292	0.00	30.181 
02:20	31.8	31.8	31.8	67	22.1	0	3	248	0.00	30.181 
02:25	31.8	31.8	31.8	66	21.8	1	2	248	0.00	30.180 
02:30	31.9	31.9	31.9	66	21.9	1	4	248	0.00	30.179 
02:35	31.9	31.9	31.9	66	21.9	1	4	270	0.00	30.176 
02:40	31.9	31.9	31.9	66	21.9	1	3	248	0.00	30.175 
02:45	32.1	32.1	32.1	65	21.7	1	4	248	0.00	30.172 
02:50	32.1	32.1	32.1	65	21.7	1	3	248	0.00	30.167 
02:55	32.4	32.4	32.4	65	22.0	1	6	270	0.00	30.165 
03:00	32.4	32.4	32.4	65	22.0	1	4	45	0.00	30.162 
03:05	32.4	32.4	32.4	66	22.3	0	2	270	0.00	30.160 
03:10	32.4	32.4	32.4	66	22.3	1	3	248	0.00	30.157 
03:15	32.4	32.4	32.4	66	22.3	1	4	248	0.00	30.151 
03:20	32.5	32.5	32.5	66	22.4	1	3	270	0.00	30.146 
03:25	32.5	32.5	32.5	66	22.4	1	5	270	0.00	30.141 
03:30	32.7	32.7	32.7	66	22.6	1	5	270	0.00	30.132 
03:35	32.7	32.7	32.7	66	22.6	1	5	45	0.00	30.130 
03:40	32.7	32.7	32.7	66	22.6	1	5	90	0.00	30.129 
03:45	32.5	32.5	32.5	67	22.8	1	5	90	0.00	30.121 
03:50	32.5	32.5	32.5	67	22.8	1	6	135	0.00	30.115 
03:55	32.5	32.5	32.5	67	22.8	2	5	90	0.00	30.111 
04:00	32.5	32.5	32.5	67	22.8	1	4	90	0.00	30.111 
04:05	32.5	32.5	32.5	67	22.8	1	3	112	0.00	30.111 
04:10	32.4	32.4	32.4	67	22.7	1	4	90	0.00	30.109 
04:15	32.2	32.2	32.2	68	22.8	1	3	68	0.00	30.102 
04:20	32.2	32.2	32.2	68	22.8	1	5	135	0.00	30.100 
04:25	32.1	32.1	32.1	68	22.7	1	3	135	0.00	30.089 
04:30	32.1	32.1	32.1	68	22.7	2	5	90	0.00	30.087 
04:35	32.1	32.1	32.1	68	22.7	2	7	90	0.00	30.085 
04:40	32.1	32.1	32.1	68	22.7	2	6	90	0.00	30.083 
04:45	32.1	32.1	32.1	69	23.1	2	5	90	0.00	30.078 
04:50	32.1	32.1	32.1	69	23.1	2	4	90	0.00	30.075 
04:55	32.1	32.1	32.1	69	23.1	2	6	90	0.00	30.074 
05:00	31.9	31.9	31.9	69	22.9	1	4	315	0.00	30.078 
05:05	31.9	31.9	31.9	69	22.9	1	3	0	0.00	30.075 
05:10	31.8	31.8	31.8	69	22.8	1	4	248	0.00	30.072 
05:15	31.9	31.9	31.9	70	23.2	1	5	270	0.00	30.070 
05:20	32.1	32.1	32.1	69	23.1	2	5	248	0.00	30.069 
05:25	32.2	32.2	32.2	69	23.2	2	6	270	0.00	30.070 
05:30	32.4	32.4	32.4	69	23.4	2	6	248	0.00	30.071 
05:35	32.4	32.4	32.4	68	23.0	1	5	248	0.00	30.075 
05:40	32.4	32.4	32.4	68	23.0	1	6	248	0.00	30.072 
05:45	32.5	32.5	32.5	68	23.1	2	5	90	0.00	30.069 
05:50	32.7	32.7	32.7	68	23.3	1	5	315	0.00	30.069 
05:55	32.8	32.8	32.8	67	23.1	2	6	248	0.00	30.068 
06:00	32.9	32.9	32.9	67	23.2	1	6	248	0.00	30.069 
06:05	33.1	33.1	33.1	66	23.0	3	7	248	0.00	30.069 
06:10	33.1	33.1	33.1	66	23.0	2	7	248	0.00	30.062 
06:15	33.1	33.1	33.1	65	22.6	2	9	248	0.00	30.058 
06:20	32.9	32.9	32.9	65	22.4	2	6	270	0.00	30.056 
06:25	32.9	32.9	32.9	65	22.4	3	10	90	0.00	30.051 
06:30	33.1	33.1	33.1	65	22.6	2	6	270	0.00	30.044 
06:35	33.2	33.2	33.2	65	22.7	2	7	90	0.00	30.041 
06:40	33.2	33.2	33.2	65	22.7	3	10	68	0.00	30.040 
06:45	33.4	33.4	33.4	65	22.9	3	9	270	0.00	30.038 
06:50	33.5	33.5	33.5	65	23.0	3	8	248	0.00	30.031 
06:55	33.5	33.5	33.5	64	22.6	3	7	248	0.00	30.025 
07:00	33.7	33.7	33.7	65	23.2	2	7	68	0.00	30.026 
07:05	33.7	33.7	33.7	64	22.8	2	6	270	0.00	30.027 
07:10	33.8	33.8	33.8	63	22.6	3	8	270	0.00	30.027 
07:15	34.0	30.4	34.0	64	23.1	4	13	248	0.00	30.027 
07:20	34.1	34.1	34.1	63	22.8	3	9	248	0.00	30.024 
07:25	34.1	34.1	34.1	64	23.2	3	10	270	0.00	30.017 
07:30	34.3	30.7	34.3	63	23.0	4	10	248	0.00	30.014 
07:35	34.4	30.8	34.4	63	23.1	4	11	248	0.00	30.011 
07:40	34.6	34.6	34.6	63	23.3	3	10	270	0.00	30.008 
07:45	34.7	34.7	34.7	62	23.0	3	10	112	0.00	30.005 
07:50	34.9	31.4	34.9	62	23.2	4	7	112	0.00	30.001 
07:55	35.2	35.2	35.2	62	23.5	3	9	90	0.00	29.996 
08:00	35.5	35.5	35.5	62	23.8	3	13	90	0.00	29.994 
08:05	35.6	32.2	35.6	61	23.5	4	10	248	0.00	29.996 
08:10	35.8	35.8	35.8	61	23.7	3	14	248	0.00	29.994 
08:15	35.8	32.5	35.8	60	23.3	4	9	248	0.00	29.991 
08:20	35.9	35.9	35.9	59	23.0	3	10	90	0.00	29.992 
08:25	36.0	36.0	36.0	60	23.5	3	11	45	0.00	29.982 
08:30	36.2	36.2	36.2	59	23.3	3	10	270	0.00	29.979 
08:35	36.3	36.3	36.3	59	23.4	3	11	68	0.00	29.967 
08:40	36.3	36.3	36.3	59	23.4	3	7	112	0.00	29.963 
08:45	36.3	36.3	36.3	59	23.4	3	9	90	0.00	29.963 
08:50	36.3	33.0	36.3	59	23.4	4	13	90	0.00	29.956 
08:55	36.6	36.6	36.6	59	23.6	2	7	112	0.00	29.950 
09:00	36.9	36.9	36.9	59	23.9	3	10	270	0.00	29.947 
09:05	37.2	37.2	37.2	57	23.4	3	12	225	0.00	29.947 
09:10	37.5	37.5	37.5	57	23.7	3	12	248	0.00	29.946 
09:15	37.6	34.5	37.6	55	22.9	4	12	248	0.00	29.948 
09:20	37.6	37.6	37.6	55	22.9	3	9	248	0.00	29.951 
09:25	37.8	34.8	37.8	55	23.1	4	15	248	0.00	29.952 
09:30	37.9	34.0	37.9	54	22.8	5	12	248	0.00	29.949 
09:35	38.0	35.0	38.0	54	22.9	4	12	248	0.00	29.945 
09:40	38.0	35.0	38.0	53	22.4	4	19	270	0.00	29.947 
09:45	38.0	35.0	38.0	54	22.9	4	12	270	0.00	29.951 
09:50	38.0	35.0	38.0	54	22.9	4	12	248	0.00	29.955 
09:55	38.0	35.0	38.0	54	22.9	4	11	248	0.00	29.955 
10:00	38.0	35.0	38.0	55	23.3	4	10	270	0.00	29.949 
10:05	37.9	37.9	37.9	58	24.5	3	9	248	0.00	29.947 
10:10	38.0	38.0	38.0	58	24.6	3	9	270	0.00	29.945 
10:15	38.3	38.3	38.3	56	24.0	3	9	270	0.00	29.935 
10:20	38.8	35.9	38.8	56	24.5	4	11	248	0.00	29.930 
10:25	39.5	35.9	39.5	55	24.7	5	10	270	0.00	29.928 
10:30	39.6	36.9	39.6	53	23.9	4	12	248	0.00	29.916 
10:35	39.8	37.1	39.8	54	24.5	4	13	248	0.00	29.913 
10:40	39.9	36.4	39.9	53	24.2	5	12	248	0.00	29.912 
10:45	40.3	37.7	40.3	52	24.1	4	13	248	0.00	29.898 
10:50	40.5	37.9	40.5	53	24.7	4	10	270	0.00	29.897 
10:55	40.3	40.3	40.3	52	24.1	3	10	248	0.00	29.895 
11:00	40.3	37.7	40.3	52	24.1	4	12	248	0.00	29.891 
11:05	40.3	36.8	40.3	51	23.6	5	13	270	0.00	29.887 
11:10	40.3	36.8	40.3	47	21.7	5	16	248	0.00	29.884 
11:15	40.6	37.2	40.6	50	23.4	5	16	270	0.00	29.880 
11:20	40.6	38.0	40.6	51	23.9	4	12	270	0.00	29.881 
11:25	40.6	35.9	40.6	49	23.0	7	17	270	0.00	29.878 
11:30	40.6	37.2	40.6	50	23.4	5	18	248	0.00	29.867 
11:35	40.8	37.4	40.8	50	23.6	5	15	270	0.00	29.869 
11:40	40.9	36.8	40.9	50	23.7	6	15	248	0.00	29.865 
11:45	41.2	37.2	41.2	50	24.0	6	17	248	0.00	29.863 
11:50	41.5	38.2	41.5	50	24.3	5	14	248	0.00	29.857 
11:55	41.8	37.9	41.8	49	24.1	6	14	270	0.00	29.850 
12:00	41.9	37.4	41.9	49	24.1	7	13	248	0.00	29.853 
12:05	42.1	37.1	42.1	49	24.3	8	20	248	0.00	29.849 
12:10	42.2	37.3	42.2	49	24.4	8	18	270	0.00	29.849 
12:15	42.5	38.7	42.5	50	25.2	6	17	248	0.00	29.848 
12:20	43.2	39.6	43.2	50	25.8	6	16	248	0.00	29.840 
12:25	43.9	39.3	43.9	49	26.0	8	16	270	0.00	29.839 
12:30	44.5	41.1	44.5	50	27.0	6	18	270	0.00	29.834 
12:35	44.5	39.6	44.5	49	26.5	9	19	248	0.00	29.838 
12:40	44.3	39.4	44.3	50	26.8	9	28	270	0.00	29.843 
12:45	44.5	39.6	44.5	50	27.0	9	17	248	0.00	29.835 
12:50	44.6	41.2	44.6	50	27.1	6	17	248	0.00	29.836 
12:55	45.1	41.8	45.1	49	27.1	6	19	248	0.00	29.835 
13:00	45.2	41.4	45.2	50	27.7	7	18	270	0.00	29.831 
13:05	45.5	43.7	45.5	51	28.4	4	12	270	0.00	29.829 
13:10	45.8	42.1	45.8	50	28.2	7	20	270	0.00	29.827 
13:15	45.8	41.7	45.8	50	28.2	8	20	270	0.00	29.820 
13:20	46.2	43.1	46.2	49	28.1	6	11	270	0.00	29.813 
13:25	46.2	42.1	46.2	49	28.1	8	18	270	0.00	29.806 
13:30	46.2	42.1	46.2	49	28.1	8	18	248	0.00	29.794 
13:35	46.2	43.1	46.2	50	28.6	6	14	248	0.00	29.794 
13:40	46.4	41.6	46.4	49	28.3	10	24	270	0.00	29.796 
13:45	46.8	42.5	46.8	50	29.2	9	20	248	0.00	29.797 
13:50	47.1	43.2	47.1	49	28.9	8	20	270	0.00	29.798 
13:55	47.3	43.9	47.3	49	29.1	7	15	248	0.00	29.799 
14:00	47.4	43.6	47.4	49	29.2	8	15	248	0.00	29.799 
14:05	47.7	43.6	47.7	48	29.0	9	26	270	0.00	29.793 
14:10	47.6	43.4	47.6	46	27.9	9	21	270	0.00	29.796 
14:15	47.4	43.2	47.4	47	28.2	9	21	248	0.00	29.795 
14:20	47.6	45.4	47.6	47	28.4	5	12	248	0.00	29.783 
14:25	47.6	43.1	47.6	47	28.4	10	21	248	0.00	29.780 
14:30	47.4	42.8	47.4	46	27.7	10	20	248	0.00	29.787 
14:35	47.4	43.6	47.4	47	28.2	8	21	248	0.00	29.789 
14:40	47.4	44.1	47.4	47	28.2	7	16	270	0.00	29.790 
14:45	47.6	43.4	47.6	46	27.9	9	26	248	0.00	29.779 
14:50	47.9	44.7	47.9	47	28.7	7	24	270	0.00	29.784 
14:55	48.0	44.8	48.0	47	28.7	7	16	270	0.00	29.782 
15:00	48.0	44.8	48.0	46	28.2	7	18	270	0.00	29.776 
15:05	48.0	45.3	48.0	46	28.2	6	14	248	0.00	29.777 
15:10	48.2	43.8	48.2	46	28.4	10	21	270	0.00	29.781 
15:15	48.3	45.1	48.3	47	29.0	7	17	248	0.00	29.779 
15:20	48.6	45.1	48.6	47	29.3	8	26	270	0.00	29.778 
15:25	48.6	44.7	48.6	46	28.8	9	21	248	0.00	29.779 
15:30	48.8	45.7	48.8	46	28.9	7	16	248	0.00	29.778 
15:35	48.9	45.4	48.9	46	29.0	8	22	270	0.00	29.777 
15:40	49.4	47.0	49.4	46	29.5	6	16	248	0.00	29.779 
15:45	49.6	46.3	49.6	46	29.7	8	18	270	0.00	29.784 
15:50	49.6	46.3	49.6	46	29.7	8	17	248	0.00	29.779 
15:55	49.5	45.8	49.5	46	29.6	9	18	270	0.00	29.779 
16:00	49.6	46.7	49.6	46	29.7	7	14	270	0.00	29.779 
16:05	49.8	46.9	49.8	46	29.9	7	20	248	0.00	29.777 
16:10	49.9	47.5	49.9	47	30.5	6	16	270	0.00	29.773 
16:15	49.8	46.5	49.8	46	29.9	8	18	270	0.00	29.768 
16:20	49.6	46.3	49.6	47	30.2	8	21	270	0.00	29.770 
16:25	49.8	47.4	49.8	47	30.4	6	14	248	0.00	29.764 
16:30	49.8	46.9	49.8	47	30.4	7	21	270	0.00	29.763 
16:35	49.9	47.5	49.9	48	31.0	6	13	248	0.00	29.765 
16:40	49.9	47.1	49.9	47	30.5	7	15	270	0.00	29.760 
16:45	50.1	50.1	50.1	48	31.2	5	14	248	0.00	29.762 
16:50	50.2	50.2	50.2	48	31.3	6	13	270	0.00	29.761 
16:55	50.5	50.5	50.5	48	31.5	4	11	248	0.00	29.762 
17:00	51.1	51.1	51.1	47	31.6	6	14	270	0.00	29.761 
17:05	51.4	51.4	51.4	47	31.9	6	15	270	0.00	29.760 
17:10	51.6	51.6	51.6	47	32.0	6	12	270	0.00	29.763 
17:15	51.6	51.6	51.6	47	32.0	6	13	270	0.00	29.773 
17:20	51.9	51.9	51.9	47	32.3	6	16	270	0.00	29.775 
17:25	52.0	52.0	52.0	47	32.4	6	14	270	0.00	29.778 
17:30	52.2	52.2	52.2	47	32.6	5	17	270	0.00	29.785 
17:35	52.2	52.2	52.2	47	32.6	4	14	270	0.00	29.783 
17:40	52.2	52.2	52.2	47	32.6	6	14	248	0.00	29.785 
17:45	52.3	52.3	52.3	47	32.7	6	15	270	0.00	29.785 
17:50	52.5	52.5	52.5	48	33.4	5	13	270	0.00	29.784 
17:55	52.5	52.5	52.5	48	33.4	5	15	248	0.00	29.787 
18:00	52.5	52.5	52.5	48	33.4	6	14	270	0.00	29.789 
18:05	52.3	52.3	52.3	49	33.7	4	10	270	0.00	29.790 
18:10	52.5	52.5	52.5	49	33.9	6	11	270	0.00	29.791 
18:15	52.6	52.6	52.6	49	34.0	6	15	270	0.00	29.799 
18:20	52.5	52.5	52.5	49	33.9	5	13	270	0.00	29.800 
18:25	52.5	52.5	52.5	50	34.4	7	13	270	0.00	29.800 
18:30	52.5	52.5	52.5	50	34.4	6	13	270	0.00	29.791 
18:35	52.3	52.3	52.3	50	34.2	5	13	270	0.00	29.788 
18:40	52.3	52.3	52.3	50	34.2	4	12	270	0.00	29.793 
18:45	52.2	52.2	52.2	51	34.6	6	15	248	0.00	29.790 
18:50	52.2	52.2	52.2	51	34.6	5	13	270	0.00	29.792 
18:55	52.3	52.3	52.3	50	34.2	8	18	248	0.00	29.790 
19:00	52.2	52.2	52.2	51	34.6	4	14	248	0.00	29.791 
19:05	52.0	52.0	52.0	51	34.4	5	13	248	0.00	29.788 
19:10	52.0	52.0	52.0	52	34.9	5	14	248	0.00	29.789 
19:15	51.9	51.9	51.9	52	34.8	4	9	248	0.00	29.789 
19:20	51.7	51.7	51.7	52	34.6	4	10	248	0.00	29.792 
19:25	51.9	51.9	51.9	52	34.8	5	17	248	0.00	29.792 
19:30	51.7	51.7	51.7	52	34.6	4	13	248	0.00	29.794 
19:35	51.7	51.7	51.7	53	35.1	4	11	248	0.00	29.798 
19:40	51.7	51.7	51.7	53	35.1	5	13	248	0.00	29.800 
19:45	51.6	51.6	51.6	53	35.0	4	10	248	0.00	29.799 
19:50	51.6	51.6	51.6	53	35.0	5	12	248	0.00	29.800 
19:55	51.6	51.6	51.6	54	35.5	4	10	270	0.00	29.801 
20:00	51.6	51.6	51.6	54	35.5	6	12	248	0.00	29.802 
20:05	51.6	51.6	51.6	54	35.5	5	16	248	0.00	29.803 
20:10	51.6	51.6	51.6	54	35.5	5	7	248	0.00	29.801 
20:15	51.4	51.4	51.4	55	35.8	5	17	270	0.00	29.802 
20:20	51.6	51.6	51.6	55	36.0	5	15	248	0.00	29.806 
20:25	51.6	51.6	51.6	55	36.0	6	14	248	0.00	29.806 
20:30	51.6	51.6	51.6	55	36.0	7	18	248	0.00	29.811 
20:35	51.6	51.6	51.6	55	36.0	6	14	270	0.00	29.817 
20:40	51.6	51.6	51.6	56	36.4	5	10	248	0.00	29.820 
20:45	51.6	51.6	51.6	56	36.4	5	14	248	0.00	29.831 
20:50	51.6	51.6	51.6	56	36.4	6	16	248	0.00	29.835 
20:55	51.6	51.6	51.6	56	36.4	5	12	248	0.00	29.836 
21:00	51.6	51.6	51.6	56	36.4	5	12	248	0.00	29.843 
21:05	51.6	51.6	51.6	57	36.9	6	13	270	0.00	29.845 
21:10	51.7	51.7	51.7	57	37.0	5	16	270	0.00	29.851 
21:15	51.6	51.6	51.6	58	37.3	2	5	270	0.00	29.863 
21:20	51.0	51.0	51.0	59	37.2	2	7	270	0.00	29.867 
21:25	51.0	51.0	51.0	58	36.7	2	5	292	0.00	29.873 
21:30	50.8	50.8	50.8	56	35.7	2	4	270	0.00	29.879 
21:35	50.7	50.7	50.7	55	35.1	1	4	270	0.00	29.882 
21:40	50.4	50.4	50.4	55	34.8	1	4	292	0.00	29.889 
21:45	50.4	50.4	50.4	54	34.4	1	3	0	0.00	29.895 
21:50	50.1	50.1	50.1	53	33.6	1	5	292	0.00	29.896 
21:55	49.8	49.8	49.8	52	32.9	1	5	248	0.00	29.898 
22:00	49.5	49.5	49.5	50	31.6	2	6	292	0.00	29.901 
22:05	49.2	49.2	49.2	49	30.9	2	6	315	0.00	29.902 
22:10	48.9	48.9	48.9	49	30.6	1	4	315	0.00	29.904 
22:15	48.6	48.6	48.6	48	29.8	2	4	270	0.00	29.907 
22:20	48.3	48.3	48.3	48	29.5	1	3	248	0.00	29.908 
22:25	48.0	48.0	48.0	48	29.3	2	5	270	0.00	29.911 
22:30	47.7	47.7	47.7	48	29.0	2	4	292	0.00	29.910 
22:35	47.4	47.4	47.4	49	29.2	1	4	270	0.00	29.915 
22:40	47.0	47.0	47.0	50	29.3	1	5	315	0.00	29.916 
22:45	46.7	46.7	46.7	50	29.1	2	7	315	0.00	29.919 
22:50	46.4	46.4	46.4	51	29.3	2	5	270	0.00	29.921 
22:55	46.2	46.2	46.2	51	29.1	2	5	270	0.00	29.927 
23:00	46.1	46.1	46.1	52	29.5	2	4	270	0.00	29.930 
23:05	45.8	45.8	45.8	52	29.2	2	8	248	0.00	29.929 
23:10	45.7	45.7	45.7	52	29.1	1	3	248	0.00	29.931 
23:15	45.4	45.4	45.4	53	29.3	1	4	315	0.00	29.935 
23:20	45.1	45.1	45.1	54	29.5	1	4	270	0.00	29.938 
23:25	44.9	44.9	44.9	54	29.3	2	5	248	0.00	29.942 
23:30	44.6	44.6	44.6	54	29.0	1	4	270	0.00	29.945 
23:35	44.3	44.3	44.3	55	29.2	1	3	292	0.00	29.946 
23:40	44.1	44.1	44.1	56	29.4	1	3	270	0.00	29.948 
23:45	43.9	43.9	43.9	56	29.2	1	4	248	0.00	29.950 
23:50	43.8	43.8	43.8	57	29.6	1	3	248	0.00	29.951 
23:55	43.5	43.5	43.5	57	29.3	0	2	248	0.00	29.950 

CoCoRaHS
IN-AL-39
A2 Web Hosting
Creative Commons License
GoDaddy
Look for:

loaded 2017-12-12 14:46:46 • last modified 2010-11-18 10:43:29
Privacy PolicyDisclaimer
• wx.awcolley.com is powered by PmWiki v.2002016 •
• all content (unless otherwise noted) © 2017 A W Colley